Startpagina
METAR-TAF:

METAR-TAF

Vliegvelden :

Aéroport Valence-Chabeuil

Valence, Frankrijk

breedte: 44-54-58N, lengte: 4-58-06E, hoogte: 160 m

Actueel weer

Dit bericht is 10 minuten geleden gemaakt, om 16:00 UTC
Wind 17 kt uit het noordnoordwesten
Temperatuur 9°C
Vochtigheid 40%
Druk 1012 hPa
Zicht 10 km of meer

METAR: LFLU 261600Z AUTO 34017KT 9999 ///TCU 09/M04 Q1012

Tijdstip: 17:10 (16:10 UTC)


TAF: ontbreekt

Waarnemingen en weersverwachtingen van meer dan 4000 vliegvelden (METAR en TAF).

De beschikbare stations zijn de gele en rode punten op de kaart.

Ga met uw muis naar het station om de naam te zien.

Klik dan om waarnemingen en weersverwachtingen te zien.

kaart wijzigen: klik op de groene knoppen met een zwart kruis om in te zoomen, op de groene knop met een streepje om uit te zoomen of op de groene pijlen voor aangrenzende kaarten.


METAR-TAF: